sensor_id;sensor_type;location;lat;lon;timestamp;P1;durP1;ratioP1;P2;durP2;ratioP2
7941;SDS011;4016;50.758;7.150;2022-11-20T00:03:52;9.00;;;6.30;;
7941;SDS011;4016;50.758;7.150;2022-11-20T00:08:55;8.60;;;6.87;;
7941;SDS011;4016;50.758;7.150;2022-11-20T00:13:57;10.67;;;7.47;;
7941;SDS011;4016;50.758;7.150;2022-11-20T00:19:00;9.57;;;6.67;;
7941;SDS011;4016;50.758;7.150;2022-11-20T00:24:01;11.50;;;7.23;;
7941;SDS011;4016;50.758;7.150;2022-11-20T00:29:01;9.07;;;6.40;;
7941;SDS011;4016;50.758;7.150;2022-11-20T00:34:02;9.13;;;6.03;;
7941;SDS011;4016;50.758;7.150;2022-11-20T00:39:02;9.27;;;6.77;;
7941;SDS011;4016;50.758;7.150;2022-11-20T00:44:03;11.17;;;7.30;;
7941;SDS011;4016;50.758;7.150;2022-11-20T00:49:03;11.10;;;7.10;;
7941;SDS011;4016;50.758;7.150;2022-11-20T00:54:04;8.30;;;6.13;;
7941;SDS011;4016;50.758;7.150;2022-11-20T00:59:04;10.90;;;7.97;;
7941;SDS011;4016;50.758;7.150;2022-11-20T01:04:04;9.60;;;6.93;;
7941;SDS011;4016;50.758;7.150;2022-11-20T01:09:06;11.63;;;6.83;;
7941;SDS011;4016;50.758;7.150;2022-11-20T01:14:14;10.93;;;7.37;;
7941;SDS011;4016;50.758;7.150;2022-11-20T01:19:20;10.00;;;6.60;;
7941;SDS011;4016;50.758;7.150;2022-11-20T01:24:22;12.10;;;6.90;;
7941;SDS011;4016;50.758;7.150;2022-11-20T01:29:24;10.20;;;6.73;;
7941;SDS011;4016;50.758;7.150;2022-11-20T01:34:25;11.03;;;7.13;;
7941;SDS011;4016;50.758;7.150;2022-11-20T01:39:26;10.10;;;6.67;;
7941;SDS011;4016;50.758;7.150;2022-11-20T01:44:47;12.00;;;6.87;;
7941;SDS011;4016;50.758;7.150;2022-11-20T01:49:59;10.80;;;6.73;;
7941;SDS011;4016;50.758;7.150;2022-11-20T01:55:25;9.23;;;6.83;;
7941;SDS011;4016;50.758;7.150;2022-11-20T02:00:28;10.50;;;6.90;;
7941;SDS011;4016;50.758;7.150;2022-11-20T02:05:31;10.20;;;6.70;;
7941;SDS011;4016;50.758;7.150;2022-11-20T02:10:35;13.17;;;7.53;;
7941;SDS011;4016;50.758;7.150;2022-11-20T02:15:36;9.90;;;6.40;;
7941;SDS011;4016;50.758;7.150;2022-11-20T02:20:36;9.73;;;6.70;;
7941;SDS011;4016;50.758;7.150;2022-11-20T02:25:38;10.47;;;7.27;;
7941;SDS011;4016;50.758;7.150;2022-11-20T02:30:40;12.53;;;7.17;;
7941;SDS011;4016;50.758;7.150;2022-11-20T02:35:45;9.40;;;6.97;;
7941;SDS011;4016;50.758;7.150;2022-11-20T02:40:46;13.57;;;6.80;;
7941;SDS011;4016;50.758;7.150;2022-11-20T02:45:46;11.40;;;6.87;;
7941;SDS011;4016;50.758;7.150;2022-11-20T02:50:47;10.53;;;6.90;;
7941;SDS011;4016;50.758;7.150;2022-11-20T02:55:47;10.87;;;7.30;;
7941;SDS011;4016;50.758;7.150;2022-11-20T03:00:47;13.27;;;7.30;;
7941;SDS011;4016;50.758;7.150;2022-11-20T03:05:48;10.43;;;7.40;;
7941;SDS011;4016;50.758;7.150;2022-11-20T03:10:48;9.57;;;6.70;;
7941;SDS011;4016;50.758;7.150;2022-11-20T03:15:49;11.50;;;7.50;;
7941;SDS011;4016;50.758;7.150;2022-11-20T03:20:49;10.50;;;7.03;;
7941;SDS011;4016;50.758;7.150;2022-11-20T03:25:50;10.53;;;6.10;;
7941;SDS011;4016;50.758;7.150;2022-11-20T03:30:50;9.10;;;6.87;;
7941;SDS011;4016;50.758;7.150;2022-11-20T03:35:50;9.63;;;7.07;;
7941;SDS011;4016;50.758;7.150;2022-11-20T03:40:51;11.57;;;7.30;;
7941;SDS011;4016;50.758;7.150;2022-11-20T03:45:51;11.37;;;7.10;;
7941;SDS011;4016;50.758;7.150;2022-11-20T03:50:52;10.43;;;7.50;;
7941;SDS011;4016;50.758;7.150;2022-11-20T03:55:53;11.87;;;7.30;;
7941;SDS011;4016;50.758;7.150;2022-11-20T04:00:53;9.97;;;6.87;;
7941;SDS011;4016;50.758;7.150;2022-11-20T04:05:54;10.87;;;7.27;;
7941;SDS011;4016;50.758;7.150;2022-11-20T04:10:55;11.37;;;6.77;;
7941;SDS011;4016;50.758;7.150;2022-11-20T04:15:57;11.53;;;7.93;;
7941;SDS011;4016;50.758;7.150;2022-11-20T04:20:58;13.23;;;7.77;;
7941;SDS011;4016;50.758;7.150;2022-11-20T04:26:08;11.93;;;8.13;;
7941;SDS011;4016;50.758;7.150;2022-11-20T04:31:11;13.07;;;7.43;;
7941;SDS011;4016;50.758;7.150;2022-11-20T04:36:15;10.90;;;7.37;;
7941;SDS011;4016;50.758;7.150;2022-11-20T04:41:18;14.37;;;8.30;;
7941;SDS011;4016;50.758;7.150;2022-11-20T04:46:20;10.50;;;7.20;;
7941;SDS011;4016;50.758;7.150;2022-11-20T04:51:20;11.33;;;7.47;;
7941;SDS011;4016;50.758;7.150;2022-11-20T04:56:21;12.60;;;8.20;;
7941;SDS011;4016;50.758;7.150;2022-11-20T05:01:23;14.07;;;9.07;;
7941;SDS011;4016;50.758;7.150;2022-11-20T05:06:24;15.50;;;9.27;;
7941;SDS011;4016;50.758;7.150;2022-11-20T05:11:24;13.53;;;8.50;;
7941;SDS011;4016;50.758;7.150;2022-11-20T05:16:25;13.70;;;7.87;;
7941;SDS011;4016;50.758;7.150;2022-11-20T05:21:25;15.50;;;8.47;;
7941;SDS011;4016;50.758;7.150;2022-11-20T05:26:27;11.13;;;8.73;;
7941;SDS011;4016;50.758;7.150;2022-11-20T05:31:27;13.03;;;8.57;;
7941;SDS011;4016;50.758;7.150;2022-11-20T05:36:28;15.30;;;8.93;;
7941;SDS011;4016;50.758;7.150;2022-11-20T05:41:29;12.10;;;8.57;;
7941;SDS011;4016;50.758;7.150;2022-11-20T05:46:30;11.07;;;8.17;;
7941;SDS011;4016;50.758;7.150;2022-11-20T05:51:30;11.30;;;7.53;;
7941;SDS011;4016;50.758;7.150;2022-11-20T05:56:31;12.33;;;8.17;;
7941;SDS011;4016;50.758;7.150;2022-11-20T06:01:32;12.13;;;8.07;;
7941;SDS011;4016;50.758;7.150;2022-11-20T06:06:32;12.23;;;7.57;;
7941;SDS011;4016;50.758;7.150;2022-11-20T06:11:33;11.30;;;6.97;;
7941;SDS011;4016;50.758;7.150;2022-11-20T06:16:33;10.17;;;6.97;;
7941;SDS011;4016;50.758;7.150;2022-11-20T06:21:34;8.30;;;6.53;;
7941;SDS011;4016;50.758;7.150;2022-11-20T06:26:34;10.30;;;7.30;;
7941;SDS011;4016;50.758;7.150;2022-11-20T06:31:34;10.10;;;6.73;;
7941;SDS011;4016;50.758;7.150;2022-11-20T06:36:37;8.37;;;5.93;;
7941;SDS011;4016;50.758;7.150;2022-11-20T06:41:37;10.10;;;7.17;;
7941;SDS011;4016;50.758;7.150;2022-11-20T06:46:38;10.43;;;6.93;;
7941;SDS011;4016;50.758;7.150;2022-11-20T06:51:38;10.63;;;6.63;;
7941;SDS011;4016;50.758;7.150;2022-11-20T06:56:38;9.73;;;7.17;;
7941;SDS011;4016;50.758;7.150;2022-11-20T07:01:39;9.57;;;6.27;;
7941;SDS011;4016;50.758;7.150;2022-11-20T07:06:39;9.73;;;6.30;;
7941;SDS011;4016;50.758;7.150;2022-11-20T07:11:39;9.87;;;6.57;;
7941;SDS011;4016;50.758;7.150;2022-11-20T07:16:40;8.63;;;7.27;;
7941;SDS011;4016;50.758;7.150;2022-11-20T07:21:44;10.17;;;6.50;;
7941;SDS011;4016;50.758;7.150;2022-11-20T07:26:47;10.13;;;7.07;;
7941;SDS011;4016;50.758;7.150;2022-11-20T07:31:49;9.93;;;6.97;;
7941;SDS011;4016;50.758;7.150;2022-11-20T07:36:50;10.10;;;6.90;;
7941;SDS011;4016;50.758;7.150;2022-11-20T07:41:50;9.00;;;6.53;;
7941;SDS011;4016;50.758;7.150;2022-11-20T07:46:50;10.67;;;6.77;;
7941;SDS011;4016;50.758;7.150;2022-11-20T07:51:51;11.00;;;7.20;;
7941;SDS011;4016;50.758;7.150;2022-11-20T07:56:53;13.10;;;7.37;;
7941;SDS011;4016;50.758;7.150;2022-11-20T08:01:54;11.73;;;6.67;;
7941;SDS011;4016;50.758;7.150;2022-11-20T08:06:55;9.47;;;7.13;;
7941;SDS011;4016;50.758;7.150;2022-11-20T08:11:55;14.63;;;8.37;;
7941;SDS011;4016;50.758;7.150;2022-11-20T08:17:14;14.00;;;7.47;;
7941;SDS011;4016;50.758;7.150;2022-11-20T08:22:15;10.40;;;7.40;;
7941;SDS011;4016;50.758;7.150;2022-11-20T08:27:17;13.87;;;9.30;;
7941;SDS011;4016;50.758;7.150;2022-11-20T08:32:18;14.80;;;8.67;;
7941;SDS011;4016;50.758;7.150;2022-11-20T08:37:18;17.70;;;9.90;;
7941;SDS011;4016;50.758;7.150;2022-11-20T08:42:18;16.47;;;10.27;;
7941;SDS011;4016;50.758;7.150;2022-11-20T08:47:19;17.33;;;10.13;;
7941;SDS011;4016;50.758;7.150;2022-11-20T08:52:19;16.90;;;9.57;;
7941;SDS011;4016;50.758;7.150;2022-11-20T08:57:20;16.87;;;9.20;;
7941;SDS011;4016;50.758;7.150;2022-11-20T09:02:20;14.07;;;8.70;;
7941;SDS011;4016;50.758;7.150;2022-11-20T09:07:21;15.37;;;9.20;;
7941;SDS011;4016;50.758;7.150;2022-11-20T09:12:21;15.17;;;9.67;;
7941;SDS011;4016;50.758;7.150;2022-11-20T09:17:21;14.87;;;9.17;;
7941;SDS011;4016;50.758;7.150;2022-11-20T09:22:22;16.37;;;10.23;;
7941;SDS011;4016;50.758;7.150;2022-11-20T09:27:22;14.20;;;9.40;;
7941;SDS011;4016;50.758;7.150;2022-11-20T09:32:23;15.00;;;9.40;;
7941;SDS011;4016;50.758;7.150;2022-11-20T09:37:23;17.73;;;9.80;;
7941;SDS011;4016;50.758;7.150;2022-11-20T09:42:30;14.27;;;8.50;;
7941;SDS011;4016;50.758;7.150;2022-11-20T09:47:51;14.50;;;9.07;;
7941;SDS011;4016;50.758;7.150;2022-11-20T09:53:13;12.03;;;7.77;;
7941;SDS011;4016;50.758;7.150;2022-11-20T09:58:38;15.07;;;8.90;;
7941;SDS011;4016;50.758;7.150;2022-11-20T10:03:54;14.87;;;9.23;;
7941;SDS011;4016;50.758;7.150;2022-11-20T10:09:06;15.67;;;8.87;;
7941;SDS011;4016;50.758;7.150;2022-11-20T10:29:54;13.50;;;8.97;;
7941;SDS011;4016;50.758;7.150;2022-11-20T10:40:44;17.50;;;11.37;;
7941;SDS011;4016;50.758;7.150;2022-11-20T10:56:35;11.57;;;7.93;;
7941;SDS011;4016;50.758;7.150;2022-11-20T11:01:42;15.50;;;8.87;;
7941;SDS011;4016;50.758;7.150;2022-11-20T11:06:43;16.37;;;10.47;;
7941;SDS011;4016;50.758;7.150;2022-11-20T11:11:47;11.87;;;7.47;;
7941;SDS011;4016;50.758;7.150;2022-11-20T11:16:51;10.60;;;6.97;;
7941;SDS011;4016;50.758;7.150;2022-11-20T11:21:56;14.80;;;8.30;;
7941;SDS011;4016;50.758;7.150;2022-11-20T11:26:58;12.87;;;8.10;;
7941;SDS011;4016;50.758;7.150;2022-11-20T11:32:08;11.47;;;7.70;;
7941;SDS011;4016;50.758;7.150;2022-11-20T11:37:17;11.90;;;7.90;;
7941;SDS011;4016;50.758;7.150;2022-11-20T11:42:21;13.03;;;7.60;;
7941;SDS011;4016;50.758;7.150;2022-11-20T11:52:46;11.37;;;7.17;;
7941;SDS011;4016;50.758;7.150;2022-11-20T12:08:06;11.73;;;7.77;;
7941;SDS011;4016;50.758;7.150;2022-11-20T12:13:26;13.90;;;8.83;;
7941;SDS011;4016;50.758;7.150;2022-11-20T12:18:33;11.03;;;7.83;;
7941;SDS011;4016;50.758;7.150;2022-11-20T12:28:59;11.73;;;7.30;;
7941;SDS011;4016;50.758;7.150;2022-11-20T12:34:05;12.57;;;8.07;;
7941;SDS011;4016;50.758;7.150;2022-11-20T12:44:36;14.17;;;8.17;;
7941;SDS011;4016;50.758;7.150;2022-11-20T12:50:15;13.23;;;8.23;;
7941;SDS011;4016;50.758;7.150;2022-11-20T12:55:28;12.40;;;8.47;;
7941;SDS011;4016;50.758;7.150;2022-11-20T13:00:35;12.97;;;8.33;;
7941;SDS011;4016;50.758;7.150;2022-11-20T13:05:51;13.50;;;7.73;;
7941;SDS011;4016;50.758;7.150;2022-11-20T13:16:15;11.40;;;7.87;;
7941;SDS011;4016;50.758;7.150;2022-11-20T13:21:38;10.83;;;7.67;;
7941;SDS011;4016;50.758;7.150;2022-11-20T13:26:40;11.27;;;7.87;;
7941;SDS011;4016;50.758;7.150;2022-11-20T13:31:42;10.33;;;6.93;;
7941;SDS011;4016;50.758;7.150;2022-11-20T13:36:52;10.63;;;7.20;;
7941;SDS011;4016;50.758;7.150;2022-11-20T13:41:55;15.77;;;7.63;;
7941;SDS011;4016;50.758;7.150;2022-11-20T13:46:57;11.77;;;6.80;;
7941;SDS011;4016;50.758;7.150;2022-11-20T14:02:29;11.77;;;8.53;;
7941;SDS011;4016;50.758;7.150;2022-11-20T14:07:35;13.93;;;8.70;;
7941;SDS011;4016;50.758;7.150;2022-11-20T14:12:39;10.53;;;7.23;;
7941;SDS011;4016;50.758;7.150;2022-11-20T14:17:39;12.53;;;7.60;;
7941;SDS011;4016;50.758;7.150;2022-11-20T14:22:47;11.27;;;6.40;;
7941;SDS011;4016;50.758;7.150;2022-11-20T14:27:52;9.10;;;6.73;;
7941;SDS011;4016;50.758;7.150;2022-11-20T14:33:03;11.73;;;7.57;;
7941;SDS011;4016;50.758;7.150;2022-11-20T14:38:04;9.33;;;6.87;;
7941;SDS011;4016;50.758;7.150;2022-11-20T14:43:16;8.37;;;6.40;;
7941;SDS011;4016;50.758;7.150;2022-11-20T14:48:21;8.87;;;6.33;;
7941;SDS011;4016;50.758;7.150;2022-11-20T14:53:31;11.33;;;7.20;;
7941;SDS011;4016;50.758;7.150;2022-11-20T14:58:32;12.27;;;7.23;;
7941;SDS011;4016;50.758;7.150;2022-11-20T15:03:34;9.37;;;6.77;;
7941;SDS011;4016;50.758;7.150;2022-11-20T15:08:39;7.13;;;5.93;;
7941;SDS011;4016;50.758;7.150;2022-11-20T15:13:50;8.90;;;6.13;;
7941;SDS011;4016;50.758;7.150;2022-11-20T15:18:51;7.37;;;6.13;;
7941;SDS011;4016;50.758;7.150;2022-11-20T15:23:51;11.00;;;7.20;;
7941;SDS011;4016;50.758;7.150;2022-11-20T15:28:52;11.57;;;7.10;;
7941;SDS011;4016;50.758;7.150;2022-11-20T15:33:52;9.33;;;5.77;;
7941;SDS011;4016;50.758;7.150;2022-11-20T15:38:53;7.20;;;5.37;;
7941;SDS011;4016;50.758;7.150;2022-11-20T15:43:53;7.90;;;5.47;;
7941;SDS011;4016;50.758;7.150;2022-11-20T15:48:54;6.27;;;4.13;;
7941;SDS011;4016;50.758;7.150;2022-11-20T15:53:55;3.93;;;3.00;;
7941;SDS011;4016;50.758;7.150;2022-11-20T15:58:56;2.97;;;2.73;;
7941;SDS011;4016;50.758;7.150;2022-11-20T16:03:57;4.83;;;3.83;;
7941;SDS011;4016;50.758;7.150;2022-11-20T16:08:57;6.03;;;4.00;;
7941;SDS011;4016;50.758;7.150;2022-11-20T16:13:57;6.57;;;4.40;;
7941;SDS011;4016;50.758;7.150;2022-11-20T16:19:17;4.23;;;3.57;;
7941;SDS011;4016;50.758;7.150;2022-11-20T16:24:18;3.37;;;3.07;;
7941;SDS011;4016;50.758;7.150;2022-11-20T16:29:18;3.53;;;2.60;;
7941;SDS011;4016;50.758;7.150;2022-11-20T16:34:18;3.07;;;2.47;;
7941;SDS011;4016;50.758;7.150;2022-11-20T16:39:19;2.37;;;2.13;;
7941;SDS011;4016;50.758;7.150;2022-11-20T16:44:19;2.87;;;2.67;;
7941;SDS011;4016;50.758;7.150;2022-11-20T16:49:19;4.17;;;2.73;;
7941;SDS011;4016;50.758;7.150;2022-11-20T16:54:20;3.23;;;2.83;;
7941;SDS011;4016;50.758;7.150;2022-11-20T16:59:20;3.10;;;2.80;;
7941;SDS011;4016;50.758;7.150;2022-11-20T17:04:21;3.77;;;3.00;;
7941;SDS011;4016;50.758;7.150;2022-11-20T17:09:21;5.93;;;3.57;;
7941;SDS011;4016;50.758;7.150;2022-11-20T17:14:21;3.60;;;3.27;;
7941;SDS011;4016;50.758;7.150;2022-11-20T17:19:22;3.27;;;2.97;;
7941;SDS011;4016;50.758;7.150;2022-11-20T17:24:22;3.03;;;2.63;;
7941;SDS011;4016;50.758;7.150;2022-11-20T17:29:23;3.70;;;3.03;;
7941;SDS011;4016;50.758;7.150;2022-11-20T17:34:23;4.37;;;3.47;;
7941;SDS011;4016;50.758;7.150;2022-11-20T17:39:23;3.20;;;2.90;;
7941;SDS011;4016;50.758;7.150;2022-11-20T17:44:24;3.90;;;3.60;;
7941;SDS011;4016;50.758;7.150;2022-11-20T17:49:24;4.40;;;3.43;;
7941;SDS011;4016;50.758;7.150;2022-11-20T17:54:24;5.27;;;3.57;;
7941;SDS011;4016;50.758;7.150;2022-11-20T17:59:25;4.93;;;3.57;;
7941;SDS011;4016;50.758;7.150;2022-11-20T18:04:25;5.60;;;3.40;;
7941;SDS011;4016;50.758;7.150;2022-11-20T18:09:25;4.53;;;3.37;;
7941;SDS011;4016;50.758;7.150;2022-11-20T18:14:26;4.97;;;3.20;;
7941;SDS011;4016;50.758;7.150;2022-11-20T18:19:38;4.70;;;2.70;;
7941;SDS011;4016;50.758;7.150;2022-11-20T18:24:41;6.17;;;3.13;;
7941;SDS011;4016;50.758;7.150;2022-11-20T18:29:42;2.77;;;2.57;;
7941;SDS011;4016;50.758;7.150;2022-11-20T18:34:44;1.70;;;1.60;;
7941;SDS011;4016;50.758;7.150;2022-11-20T18:39:45;2.00;;;1.90;;
7941;SDS011;4016;50.758;7.150;2022-11-20T18:44:45;4.13;;;1.80;;
7941;SDS011;4016;50.758;7.150;2022-11-20T18:49:53;3.30;;;1.90;;
7941;SDS011;4016;50.758;7.150;2022-11-20T18:54:56;3.10;;;2.30;;
7941;SDS011;4016;50.758;7.150;2022-11-20T18:59:57;2.37;;;2.10;;
7941;SDS011;4016;50.758;7.150;2022-11-20T19:04:58;2.67;;;2.47;;
7941;SDS011;4016;50.758;7.150;2022-11-20T19:09:59;2.23;;;2.10;;
7941;SDS011;4016;50.758;7.150;2022-11-20T19:14:59;4.80;;;2.77;;
7941;SDS011;4016;50.758;7.150;2022-11-20T19:20:00;4.60;;;2.80;;
7941;SDS011;4016;50.758;7.150;2022-11-20T19:25:00;4.17;;;2.60;;
7941;SDS011;4016;50.758;7.150;2022-11-20T19:30:00;8.67;;;3.10;;
7941;SDS011;4016;50.758;7.150;2022-11-20T19:35:02;4.33;;;3.00;;
7941;SDS011;4016;50.758;7.150;2022-11-20T19:40:03;3.80;;;2.40;;
7941;SDS011;4016;50.758;7.150;2022-11-20T19:45:04;4.17;;;3.33;;
7941;SDS011;4016;50.758;7.150;2022-11-20T19:50:05;5.10;;;2.67;;
7941;SDS011;4016;50.758;7.150;2022-11-20T19:55:06;6.90;;;4.10;;
7941;SDS011;4016;50.758;7.150;2022-11-20T20:00:06;7.63;;;3.70;;
7941;SDS011;4016;50.758;7.150;2022-11-20T20:05:08;4.30;;;3.10;;
7941;SDS011;4016;50.758;7.150;2022-11-20T20:10:08;7.70;;;3.27;;
7941;SDS011;4016;50.758;7.150;2022-11-20T20:15:09;7.67;;;2.90;;
7941;SDS011;4016;50.758;7.150;2022-11-20T20:20:09;3.17;;;2.77;;
7941;SDS011;4016;50.758;7.150;2022-11-20T20:25:10;6.97;;;3.00;;
7941;SDS011;4016;50.758;7.150;2022-11-20T20:30:10;5.20;;;3.00;;
7941;SDS011;4016;50.758;7.150;2022-11-20T20:35:11;2.80;;;2.40;;
7941;SDS011;4016;50.758;7.150;2022-11-20T20:40:12;3.60;;;2.40;;
7941;SDS011;4016;50.758;7.150;2022-11-20T20:45:12;7.23;;;2.93;;
7941;SDS011;4016;50.758;7.150;2022-11-20T20:50:13;5.40;;;2.70;;
7941;SDS011;4016;50.758;7.150;2022-11-20T20:55:13;5.10;;;2.50;;
7941;SDS011;4016;50.758;7.150;2022-11-20T21:00:14;3.50;;;2.27;;
7941;SDS011;4016;50.758;7.150;2022-11-20T21:05:14;6.17;;;2.37;;
7941;SDS011;4016;50.758;7.150;2022-11-20T21:10:15;4.43;;;2.60;;
7941;SDS011;4016;50.758;7.150;2022-11-20T21:15:15;2.87;;;2.40;;
7941;SDS011;4016;50.758;7.150;2022-11-20T21:20:16;2.07;;;1.83;;
7941;SDS011;4016;50.758;7.150;2022-11-20T21:25:36;5.80;;;2.80;;
7941;SDS011;4016;50.758;7.150;2022-11-20T21:30:37;4.83;;;2.50;;
7941;SDS011;4016;50.758;7.150;2022-11-20T21:35:37;6.63;;;2.43;;
7941;SDS011;4016;50.758;7.150;2022-11-20T21:40:37;5.03;;;2.33;;
7941;SDS011;4016;50.758;7.150;2022-11-20T21:45:38;7.57;;;2.80;;
7941;SDS011;4016;50.758;7.150;2022-11-20T21:50:38;4.00;;;1.80;;
7941;SDS011;4016;50.758;7.150;2022-11-20T21:55:38;6.57;;;2.93;;
7941;SDS011;4016;50.758;7.150;2022-11-20T22:00:39;4.63;;;2.30;;
7941;SDS011;4016;50.758;7.150;2022-11-20T22:05:39;4.57;;;2.23;;
7941;SDS011;4016;50.758;7.150;2022-11-20T22:10:40;4.40;;;2.13;;
7941;SDS011;4016;50.758;7.150;2022-11-20T22:15:40;3.97;;;2.47;;
7941;SDS011;4016;50.758;7.150;2022-11-20T22:20:40;6.07;;;2.30;;
7941;SDS011;4016;50.758;7.150;2022-11-20T22:25:41;3.30;;;2.23;;
7941;SDS011;4016;50.758;7.150;2022-11-20T22:30:41;2.33;;;2.13;;
7941;SDS011;4016;50.758;7.150;2022-11-20T22:35:41;4.50;;;2.80;;
7941;SDS011;4016;50.758;7.150;2022-11-20T22:40:42;5.17;;;2.63;;
7941;SDS011;4016;50.758;7.150;2022-11-20T22:45:47;6.40;;;2.50;;
7941;SDS011;4016;50.758;7.150;2022-11-20T22:50:47;3.17;;;2.53;;
7941;SDS011;4016;50.758;7.150;2022-11-20T22:55:48;4.77;;;2.70;;
7941;SDS011;4016;50.758;7.150;2022-11-20T23:00:48;2.83;;;2.57;;
7941;SDS011;4016;50.758;7.150;2022-11-20T23:05:49;2.50;;;2.30;;
7941;SDS011;4016;50.758;7.150;2022-11-20T23:10:49;4.33;;;2.73;;
7941;SDS011;4016;50.758;7.150;2022-11-20T23:15:49;6.83;;;2.73;;
7941;SDS011;4016;50.758;7.150;2022-11-20T23:20:50;6.50;;;3.13;;
7941;SDS011;4016;50.758;7.150;2022-11-20T23:25:50;5.80;;;2.90;;
7941;SDS011;4016;50.758;7.150;2022-11-20T23:30:51;8.43;;;3.33;;
7941;SDS011;4016;50.758;7.150;2022-11-20T23:35:51;10.37;;;3.53;;
7941;SDS011;4016;50.758;7.150;2022-11-20T23:40:52;7.00;;;3.13;;
7941;SDS011;4016;50.758;7.150;2022-11-20T23:45:56;6.37;;;3.30;;
7941;SDS011;4016;50.758;7.150;2022-11-20T23:50:57;6.00;;;3.33;;
7941;SDS011;4016;50.758;7.150;2022-11-20T23:55:59;4.70;;;2.40;;
